Time;durP1;ratioP1;P1;durP2;ratioP2;P2;SDS_P1;SDS_P2;PMS_P1;PMS_P2;Temp;Humidity;BMP_temperature;BMP_pressure;BME280_temperature;BME280_humidity;BME280_pressure;Samples;Min_cycle;Max_cycle;Signal;HPM_P1;HPM_P2
2021/03/26 00:01:46;;;;;;;;;;;5.30;79.90;;;;;;5012009;28;19971;-74
2021/03/26 00:04:12;;;;;;;;;;;5.30;79.90;;;;;;5012093;28;21549;-73
2021/03/26 00:06:39;;;;;;;;;;;5.40;79.90;;;;;;5011806;28;19913;-73
2021/03/26 00:09:06;;;;;;;;;;;5.30;79.90;;;;;;4993207;28;19921;-74
2021/03/26 00:11:32;;;;;;;;;;;5.30;79.90;;;;;;4977897;28;19913;-74
2021/03/26 00:13:58;;;;;;;;;;;5.30;79.90;;;;;;5010992;28;19928;-74
2021/03/26 00:16:24;;;;;;;;;;;5.40;79.90;;;;;;5011914;28;20375;-74
2021/03/26 00:18:50;;;;;;;;;;;5.40;79.80;;;;;;5011714;28;20340;-74
2021/03/26 00:21:16;;;;;;;;;;;5.40;79.60;;;;;;4993571;28;19909;-74
2021/03/26 00:23:42;;;;;;;;;;;5.40;79.50;;;;;;5011173;28;19909;-74
2021/03/26 00:26:08;;;;;;;;;;;5.50;79.60;;;;;;5011520;28;19913;-74
2021/03/26 00:28:33;;;;;;;;;;;5.50;79.50;;;;;;5011525;28;20329;-74
2021/03/26 00:30:59;;;;;;;;;;;5.50;79.50;;;;;;5011025;28;20393;-74
2021/03/26 00:33:25;;;;;;;;;;;5.60;79.50;;;;;;5011529;28;20432;-74
2021/03/26 00:35:53;;;;;;;;;;;5.50;79.40;;;;;;4992216;28;19957;-74
2021/03/26 00:38:18;;;;;;;;;;;5.50;79.40;;;;;;5011470;28;19949;-74
2021/03/26 00:40:44;;;;;;;;;;;5.50;79.50;;;;;;5011407;28;20410;-74
2021/03/26 00:43:09;;;;;;;;;;;5.50;79.60;;;;;;5011926;28;19909;-74
2021/03/26 00:45:36;;;;;;;;;;;5.50;79.70;;;;;;5011340;28;20364;-74
2021/03/26 00:48:01;;;;;;;;;;;5.40;79.70;;;;;;5011740;28;20418;-74
2021/03/26 00:50:31;;;;;;;;;;;5.50;79.80;;;;;;5011149;28;19906;-73
2021/03/26 00:52:58;;;;;;;;;;;5.50;79.80;;;;;;5011244;28;19912;-74
2021/03/26 00:55:24;;;;;;;;;;;5.50;79.80;;;;;;4992245;28;19906;-74
2021/03/26 00:57:49;;;;;;;;;;;5.50;79.80;;;;;;5011100;28;19921;-74
2021/03/26 01:00:17;;;;;;;;;;;5.50;79.80;;;;;;5010910;28;19920;-74
2021/03/26 01:02:43;;;;;;;;;;;5.50;79.80;;;;;;5011528;28;19913;-74
2021/03/26 01:05:10;;;;;;;;;;;5.50;79.80;;;;;;5011288;28;19917;-74
2021/03/26 01:07:36;;;;;;;;;;;5.60;79.90;;;;;;4993275;28;19964;-74
2021/03/26 01:10:03;;;;;;;;;;;5.60;79.80;;;;;;5010981;28;19976;-74
2021/03/26 01:12:29;;;;;;;;;;;5.60;79.60;;;;;;5011017;28;19906;-74
2021/03/26 01:14:54;;;;;;;;;;;5.70;79.70;;;;;;4991767;28;20272;-74
2021/03/26 01:17:20;;;;;;;;;;;5.70;79.70;;;;;;5010731;28;19944;-74
2021/03/26 01:19:47;;;;;;;;;;;5.70;79.70;;;;;;5010876;28;19906;-74
2021/03/26 01:22:12;;;;;;;;;;;5.70;79.80;;;;;;5011160;28;19909;-74
2021/03/26 01:24:38;;;;;;;;;;;5.80;79.70;;;;;;5012371;28;20275;-74
2021/03/26 01:27:04;;;;;;;;;;;5.80;79.60;;;;;;5014062;28;20304;-74
2021/03/26 01:29:29;;;;;;;;;;;5.90;79.50;;;;;;5014393;28;19955;-74
2021/03/26 01:31:55;;;;;;;;;;;5.90;79.30;;;;;;5014090;28;19906;-74
2021/03/26 01:34:22;;;;;;;;;;;5.90;79.30;;;;;;5014764;28;19920;-74
2021/03/26 01:36:48;;;;;;;;;;;6.00;79.40;;;;;;5014586;28;20364;-74
2021/03/26 01:39:13;;;;;;;;;;;5.90;79.40;;;;;;4994799;28;19968;-74
2021/03/26 01:41:40;;;;;;;;;;;6.00;79.60;;;;;;5013925;28;19914;-74
2021/03/26 01:44:10;;;;;;;;;;;6.10;79.60;;;;;;5013772;28;19980;-74
2021/03/26 01:46:36;;;;;;;;;;;5.90;79.40;;;;;;5013846;28;19905;-74
2021/03/26 01:49:03;;;;;;;;;;;6.00;79.50;;;;;;5013948;28;19945;-74
2021/03/26 01:51:31;;;;;;;;;;;6.00;79.50;;;;;;5011942;28;19914;-74
2021/03/26 01:53:58;;;;;;;;;;;5.90;79.60;;;;;;5013767;28;20267;-74
2021/03/26 01:56:24;;;;;;;;;;;5.90;80.30;;;;;;5013993;28;19956;-74
2021/03/26 01:58:49;;;;;;;;;;;5.90;79.70;;;;;;5013686;28;20478;-74
2021/03/26 02:01:18;;;;;;;;;;;5.90;79.70;;;;;;5013740;28;19917;-74
2021/03/26 02:03:46;;;;;;;;;;;6.00;79.80;;;;;;5011707;28;19906;-74
2021/03/26 02:06:17;;;;;;;;;;;6.00;79.80;;;;;;5013515;28;19979;-74
2021/03/26 02:08:42;;;;;;;;;;;6.00;80.00;;;;;;5013454;28;19914;-74
2021/03/26 02:11:23;;;;;;;;;;;6.00;79.80;;;;;;5013424;28;19949;-74
2021/03/26 02:13:49;;;;;;;;;;;6.00;79.80;;;;;;5012196;28;19975;-74
2021/03/26 02:16:16;;;;;;;;;;;6.00;79.90;;;;;;5014117;28;20323;-74
2021/03/26 02:18:42;;;;;;;;;;;6.00;80.00;;;;;;5013748;28;19999;-74
2021/03/26 02:21:15;;;;;;;;;;;6.00;80.10;;;;;;5013270;28;19906;-74
2021/03/26 02:23:41;;;;;;;;;;;6.10;80.20;;;;;;4995738;28;19913;-74
2021/03/26 02:26:13;;;;;;;;;;;6.10;80.00;;;;;;5013291;28;19927;-74
2021/03/26 02:28:38;;;;;;;;;;;6.10;79.90;;;;;;5013539;28;20347;-74
2021/03/26 02:31:04;;;;;;;;;;;6.20;79.80;;;;;;4994748;28;19921;-74
2021/03/26 02:33:30;;;;;;;;;;;6.10;79.80;;;;;;5013047;28;19995;-74
2021/03/26 02:36:17;;;;;;;;;;;6.10;79.90;;;;;;5012402;28;19917;-74
2021/03/26 02:38:46;;;;;;;;;;;6.10;79.90;;;;;;5012508;28;20689;-74
2021/03/26 02:41:25;;;;;;;;;;;6.10;80.60;;;;;;4979008;28;20257;-74
2021/03/26 02:43:59;;;;;;;;;;;6.10;80.00;;;;;;5011411;28;19917;-74
2021/03/26 02:46:28;;;;;;;;;;;6.20;80.10;;;;;;5011716;28;19913;-74
2021/03/26 02:48:58;;;;;;;;;;;6.10;80.00;;;;;;5011361;28;19913;-74
2021/03/26 02:51:28;;;;;;;;;;;6.20;80.00;;;;;;5011222;28;19913;-74
2021/03/26 02:54:00;;;;;;;;;;;6.20;80.00;;;;;;5012946;28;19920;-74
2021/03/26 02:56:40;;;;;;;;;;;6.20;80.00;;;;;;5012303;28;20229;-74
2021/03/26 02:59:08;;;;;;;;;;;6.20;80.10;;;;;;5011341;28;19905;-74
2021/03/26 03:01:38;;;;;;;;;;;6.20;80.20;;;;;;5010986;28;19996;-74
2021/03/26 03:04:08;;;;;;;;;;;6.20;80.20;;;;;;5010968;28;19921;-74
2021/03/26 03:06:36;;;;;;;;;;;6.30;80.30;;;;;;5010866;28;19921;-73
2021/03/26 03:09:04;;;;;;;;;;;6.20;80.20;;;;;;5012832;28;19952;-74
2021/03/26 03:11:34;;;;;;;;;;;6.40;80.30;;;;;;5012742;28;19979;-74
2021/03/26 03:14:17;;;;;;;;;;;6.40;80.00;;;;;;4994679;28;19914;-74
2021/03/26 03:16:47;;;;;;;;;;;6.50;79.90;;;;;;5011670;28;19906;-74
2021/03/26 03:19:27;;;;;;;;;;;6.50;79.70;;;;;;5012292;28;19913;-74
2021/03/26 03:21:57;;;;;;;;;;;6.50;79.70;;;;;;5011128;28;19971;-74
2021/03/26 03:24:25;;;;;;;;;;;6.60;79.80;;;;;;5010910;28;20331;-73
2021/03/26 03:26:53;;;;;;;;;;;6.60;79.80;;;;;;5010437;28;19913;-74
2021/03/26 03:29:38;;;;;;;;;;;6.70;79.90;;;;;;5012347;28;19948;-74
2021/03/26 03:32:13;;;;;;;;;;;6.60;79.80;;;;;;5011872;28;20359;-74
2021/03/26 03:34:40;;;;;;;;;;;6.80;79.80;;;;;;5010659;28;19915;-74
2021/03/26 03:37:19;;;;;;;;;;;6.90;79.80;;;;;;5012173;28;20372;-74
2021/03/26 03:39:59;;;;;;;;;;;6.90;79.60;;;;;;5011133;28;19910;-74
2021/03/26 03:42:30;;;;;;;;;;;7.00;79.50;;;;;;5011266;28;19948;-74
2021/03/26 03:45:09;;;;;;;;;;;7.00;79.40;;;;;;5011324;28;19918;-74
2021/03/26 03:47:39;;;;;;;;;;;7.10;79.40;;;;;;5010839;28;19920;-74
2021/03/26 03:50:10;;;;;;;;;;;7.10;79.40;;;;;;5011793;28;19967;-74
2021/03/26 03:52:42;;;;;;;;;;;7.10;79.40;;;;;;4994333;28;19913;-74
2021/03/26 03:55:12;;;;;;;;;;;7.10;79.40;;;;;;5009877;28;19914;-74
2021/03/26 03:57:45;;;;;;;;;;;7.20;79.40;;;;;;5010146;28;19905;-74
2021/03/26 04:00:16;;;;;;;;;;;7.20;79.40;;;;;;5010576;28;19910;-74
2021/03/26 04:03:01;;;;;;;;;;;7.30;79.50;;;;;;5010459;28;19932;-74
2021/03/26 04:05:31;;;;;;;;;;;7.30;79.50;;;;;;5011017;28;19940;-74
2021/03/26 04:07:59;;;;;;;;;;;7.30;79.50;;;;;;4992766;28;19932;-74
2021/03/26 04:10:26;;;;;;;;;;;7.40;79.60;;;;;;5009792;28;20418;-74
2021/03/26 04:12:52;;;;;;;;;;;7.40;79.60;;;;;;5011673;28;20711;-74
2021/03/26 04:15:31;;;;;;;;;;;7.40;79.60;;;;;;4993423;28;19905;-74
2021/03/26 04:18:00;;;;;;;;;;;7.50;79.60;;;;;;5011536;28;19909;-74
2021/03/26 04:20:28;;;;;;;;;;;7.50;79.60;;;;;;4994030;28;20000;-74
2021/03/26 04:22:57;;;;;;;;;;;7.50;79.60;;;;;;4993705;28;19932;-74
2021/03/26 04:25:25;;;;;;;;;;;7.50;79.60;;;;;;5011545;28;19925;-74
2021/03/26 04:27:57;;;;;;;;;;;7.50;79.70;;;;;;5011482;28;19923;-74
2021/03/26 04:30:29;;;;;;;;;;;7.60;80.40;;;;;;5011159;28;20346;-74
2021/03/26 04:32:55;;;;;;;;;;;7.60;79.80;;;;;;5011497;28;20044;-74
2021/03/26 04:35:20;;;;;;;;;;;7.70;79.80;;;;;;4993002;28;19964;-74
2021/03/26 04:37:59;;;;;;;;;;;7.60;79.70;;;;;;5011595;28;19914;-74
2021/03/26 04:40:28;;;;;;;;;;;7.60;79.70;;;;;;5011159;28;19924;-74
2021/03/26 04:43:01;;;;;;;;;;;7.70;79.80;;;;;;4993352;28;20315;-74
2021/03/26 04:45:29;;;;;;;;;;;7.70;79.80;;;;;;5011252;28;19918;-74
2021/03/26 04:48:13;;;;;;;;;;;7.80;79.80;;;;;;4993125;28;20342;-73
2021/03/26 04:50:41;;;;;;;;;;;7.80;79.80;;;;;;5010633;28;19917;-74
2021/03/26 04:53:09;;;;;;;;;;;7.80;79.80;;;;;;4992841;28;19905;-74
2021/03/26 04:55:37;;;;;;;;;;;7.80;79.80;;;;;;5011252;28;19906;-74
2021/03/26 04:58:05;;;;;;;;;;;7.90;79.90;;;;;;5011345;28;19947;-74
2021/03/26 05:00:44;;;;;;;;;;;7.80;79.80;;;;;;5012419;28;19993;-74
2021/03/26 05:03:13;;;;;;;;;;;7.80;79.80;;;;;;5013293;28;20422;-74
2021/03/26 05:05:42;;;;;;;;;;;7.80;79.90;;;;;;5015201;28;19955;-74
2021/03/26 05:08:08;;;;;;;;;;;7.90;80.00;;;;;;5014762;28;19905;-74
2021/03/26 05:10:35;;;;;;;;;;;7.80;80.00;;;;;;5014887;28;19905;-74
2021/03/26 05:13:02;;;;;;;;;;;7.90;80.00;;;;;;5014858;28;19905;-74
2021/03/26 05:15:30;;;;;;;;;;;7.90;80.00;;;;;;5014475;28;19933;-74
2021/03/26 05:18:15;;;;;;;;;;;7.90;80.10;;;;;;5014560;28;19917;-74
2021/03/26 05:20:52;;;;;;;;;;;7.90;80.20;;;;;;5013686;28;19913;-74
2021/03/26 05:23:22;;;;;;;;;;;7.80;80.10;;;;;;5012846;28;19913;-74
2021/03/26 05:25:50;;;;;;;;;;;8.00;80.20;;;;;;5012474;28;20306;-74
2021/03/26 05:28:19;;;;;;;;;;;7.90;80.10;;;;;;5014391;28;19972;-74
2021/03/26 05:30:45;;;;;;;;;;;8.00;80.20;;;;;;5014200;28;19945;-74
2021/03/26 05:33:31;;;;;;;;;;;7.90;80.10;;;;;;5014154;28;19905;-74
2021/03/26 05:36:01;;;;;;;;;;;8.00;80.20;;;;;;5013982;28;20267;-74
2021/03/26 05:38:29;;;;;;;;;;;8.00;80.20;;;;;;5014621;28;19948;-74
2021/03/26 05:41:14;;;;;;;;;;;8.00;80.30;;;;;;5014183;28;19956;-74
2021/03/26 05:43:56;;;;;;;;;;;7.90;80.30;;;;;;5014063;28;19906;-74
2021/03/26 05:46:36;;;;;;;;;;;7.90;80.30;;;;;;5012327;28;19936;-73
2021/03/26 05:49:09;;;;;;;;;;;7.90;80.40;;;;;;5013313;28;19922;-74
2021/03/26 05:51:41;;;;;;;;;;;7.90;80.40;;;;;;5012022;28;19905;-74
2021/03/26 05:54:27;;;;;;;;;;;7.90;80.40;;;;;;5012219;28;20363;-74
2021/03/26 05:57:07;;;;;;;;;;;8.00;80.50;;;;;;4997752;28;19905;-74
2021/03/26 05:59:41;;;;;;;;;;;8.10;80.50;;;;;;5013569;28;19967;-74
2021/03/26 06:02:26;;;;;;;;;;;8.00;80.50;;;;;;5011901;28;19909;-74
2021/03/26 06:05:02;;;;;;;;;;;8.00;80.50;;;;;;4997652;28;19917;-74
2021/03/26 06:07:47;;;;;;;;;;;8.10;80.50;;;;;;4994878;28;20360;-74
2021/03/26 06:10:24;;;;;;;;;;;8.10;80.50;;;;;;5011187;28;19909;-74
2021/03/26 06:13:06;;;;;;;;;;;8.10;80.50;;;;;;4996427;28;19921;-74
2021/03/26 06:15:43;;;;;;;;;;;8.00;80.50;;;;;;5012909;28;19951;-74
2021/03/26 06:18:28;;;;;;;;;;;8.10;80.50;;;;;;5011567;28;19913;-74
2021/03/26 06:21:08;;;;;;;;;;;8.10;80.60;;;;;;4994268;28;19964;-74
2021/03/26 06:23:48;;;;;;;;;;;8.10;80.50;;;;;;5012898;28;20707;-75
2021/03/26 06:26:28;;;;;;;;;;;8.20;80.60;;;;;;5012479;28;19972;-74
2021/03/26 06:29:01;;;;;;;;;;;8.20;80.60;;;;;;5013207;28;19906;-74
2021/03/26 06:31:39;;;;;;;;;;;8.20;80.50;;;;;;5012008;28;20279;-74
2021/03/26 06:34:19;;;;;;;;;;;8.20;80.50;;;;;;5012723;28;19914;-74
2021/03/26 06:36:54;;;;;;;;;;;8.20;80.50;;;;;;5012791;28;20405;-74
2021/03/26 06:39:28;;;;;;;;;;;8.30;80.50;;;;;;5012136;28;20386;-74
2021/03/26 06:42:10;;;;;;;;;;;8.30;80.50;;;;;;5011219;28;19905;-74
2021/03/26 06:44:50;;;;;;;;;;;8.30;80.40;;;;;;5012284;28;19925;-74
2021/03/26 06:47:24;;;;;;;;;;;8.30;80.40;;;;;;5012081;28;20375;-74
2021/03/26 06:50:01;;;;;;;;;;;8.50;80.50;;;;;;5011767;28;19909;-74
2021/03/26 06:52:43;;;;;;;;;;;8.50;80.50;;;;;;5011183;28;20411;-74
2021/03/26 06:55:18;;;;;;;;;;;8.50;80.50;;;;;;5012644;28;19905;-74
2021/03/26 06:58:01;;;;;;;;;;;8.50;80.40;;;;;;5011714;28;19917;-73
2021/03/26 07:00:39;;;;;;;;;;;8.50;80.40;;;;;;5010852;28;19906;-74
2021/03/26 07:03:14;;;;;;;;;;;8.50;80.30;;;;;;4994263;28;19913;-74
2021/03/26 07:05:50;;;;;;;;;;;8.60;80.30;;;;;;5012522;28;19926;-74
2021/03/26 07:08:24;;;;;;;;;;;8.60;80.30;;;;;;5011415;28;19913;-74
2021/03/26 07:11:02;;;;;;;;;;;8.70;80.30;;;;;;5011386;28;20455;-75
2021/03/26 07:13:48;;;;;;;;;;;8.70;80.20;;;;;;5010599;28;19921;-74
2021/03/26 07:16:32;;;;;;;;;;;8.70;80.10;;;;;;5010838;28;19905;-75
2021/03/26 07:19:18;;;;;;;;;;;8.80;80.20;;;;;;5010176;28;19909;-73
2021/03/26 07:21:49;;;;;;;;;;;8.80;80.10;;;;;;4980463;28;20319;-73
2021/03/26 07:24:35;;;;;;;;;;;8.90;80.10;;;;;;5010469;28;19917;-73
2021/03/26 07:27:13;;;;;;;;;;;8.90;80.10;;;;;;4996183;28;19929;-73
2021/03/26 07:29:59;;;;;;;;;;;8.90;80.00;;;;;;5011707;28;20289;-73
2021/03/26 07:32:28;;;;;;;;;;;8.90;80.00;;;;;;5011619;28;19920;-73
2021/03/26 07:35:13;;;;;;;;;;;9.00;80.00;;;;;;5012284;28;19914;-75
2021/03/26 07:37:48;;;;;;;;;;;9.00;79.90;;;;;;5011771;28;19988;-73
2021/03/26 07:40:24;;;;;;;;;;;9.20;80.00;;;;;;5012187;28;19914;-73
2021/03/26 07:43:04;;;;;;;;;;;9.20;79.80;;;;;;5010976;28;19924;-74
2021/03/26 07:45:44;;;;;;;;;;;9.30;79.70;;;;;;5012213;28;19960;-73
2021/03/26 07:48:16;;;;;;;;;;;9.30;79.60;;;;;;5011028;28;20385;-74
2021/03/26 07:50:46;;;;;;;;;;;9.40;79.50;;;;;;5012114;28;19917;-74
2021/03/26 07:53:18;;;;;;;;;;;9.50;79.50;;;;;;5012123;28;19913;-73
2021/03/26 07:55:55;;;;;;;;;;;9.60;79.40;;;;;;5011917;28;20303;-74
2021/03/26 07:58:33;;;;;;;;;;;9.70;79.20;;;;;;5011098;28;19959;-74
2021/03/26 08:01:07;;;;;;;;;;;9.80;79.10;;;;;;5011274;28;20014;-74
2021/03/26 08:03:46;;;;;;;;;;;10.00;78.90;;;;;;5012231;28;19916;-74
2021/03/26 08:06:31;;;;;;;;;;;10.10;78.50;;;;;;5011040;28;19924;-74
2021/03/26 08:09:02;;;;;;;;;;;10.20;78.50;;;;;;5011121;28;19920;-74
2021/03/26 08:11:47;;;;;;;;;;;10.20;78.40;;;;;;5011841;28;19913;-75
2021/03/26 08:14:24;;;;;;;;;;;10.30;78.50;;;;;;5010867;28;20323;-74
2021/03/26 08:17:07;;;;;;;;;;;10.40;78.50;;;;;;5009717;28;19906;-74
2021/03/26 08:19:47;;;;;;;;;;;10.50;78.40;;;;;;5011548;28;20418;-74
2021/03/26 08:22:17;;;;;;;;;;;10.60;78.30;;;;;;5016936;28;19912;-76
2021/03/26 08:24:55;;;;;;;;;;;10.80;78.40;;;;;;5013105;28;19971;-77
2021/03/26 08:27:24;;;;;;;;;;;10.70;78.20;;;;;;5009879;28;19911;-76
2021/03/26 08:29:58;;;;;;;;;;;10.80;78.20;;;;;;4992472;28;19905;-77
2021/03/26 08:32:43;;;;;;;;;;;10.90;78.10;;;;;;4993247;28;20346;-78
2021/03/26 08:35:29;;;;;;;;;;;11.10;77.90;;;;;;4995142;28;19914;-78
2021/03/26 08:38:11;;;;;;;;;;;11.20;77.90;;;;;;4979662;28;19909;-77
2021/03/26 08:40:51;;;;;;;;;;;11.30;77.80;;;;;;5011422;28;20280;-77
2021/03/26 08:43:18;;;;;;;;;;;11.40;77.70;;;;;;5012217;28;19916;-80
2021/03/26 08:45:46;;;;;;;;;;;11.50;77.50;;;;;;5012164;28;20363;-89
2021/03/26 08:48:20;;;;;;;;;;;11.50;77.40;;;;;;5009946;28;19913;-77
2021/03/26 08:50:52;;;;;;;;;;;11.60;77.30;;;;;;5011165;28;20364;-84
2021/03/26 08:53:33;;;;;;;;;;;11.70;77.40;;;;;;5011209;28;19921;-79
2021/03/26 08:56:13;;;;;;;;;;;11.80;77.20;;;;;;5010605;28;19920;-80
2021/03/26 08:58:50;;;;;;;;;;;11.90;77.80;;;;;;5010161;28;19951;-79
2021/03/26 09:01:35;;;;;;;;;;;11.90;77.10;;;;;;5010239;28;19905;-78
2021/03/26 09:04:11;;;;;;;;;;;12.00;77.10;;;;;;5009953;28;20375;-78
2021/03/26 09:06:53;;;;;;;;;;;12.20;76.90;;;;;;4977543;28;19913;-77
2021/03/26 09:09:26;;;;;;;;;;;12.20;76.70;;;;;;5010460;28;19920;-77
2021/03/26 09:12:11;;;;;;;;;;;12.30;76.70;;;;;;5010723;28;19933;-78
2021/03/26 09:14:57;;;;;;;;;;;12.40;76.70;;;;;;4996285;28;19913;-77
2021/03/26 09:17:27;;;;;;;;;;;12.60;76.60;;;;;;4996531;28;19912;-77
2021/03/26 09:19:56;;;;;;;;;;;12.70;76.50;;;;;;5010820;28;19951;-77
2021/03/26 09:22:34;;;;;;;;;;;12.80;76.40;;;;;;4992810;28;19959;-77
2021/03/26 09:25:12;;;;;;;;;;;12.80;76.20;;;;;;5009586;28;19924;-76
2021/03/26 09:28:11;;;;;;;;;;;12.90;76.10;;;;;;4993137;28;19914;-81
2021/03/26 09:30:40;;;;;;;;;;;12.90;76.00;;;;;;4993667;28;20310;-77
2021/03/26 09:33:13;;;;;;;;;;;13.00;75.80;;;;;;5010977;28;20367;-80
2021/03/26 09:39:13;;;;;;;;;;;13.10;75.50;;;;;;4980762;28;19914;-81
2021/03/26 09:41:54;;;;;;;;;;;13.10;75.70;;;;;;4930469;29;19955;-81
2021/03/26 09:44:33;;;;;;;;;;;13.20;75.80;;;;;;4894438;29;19919;-80
2021/03/26 09:49:59;;;;;;;;;;;13.40;75.70;;;;;;4897540;29;20282;-79
2021/03/26 09:52:36;;;;;;;;;;;13.50;75.60;;;;;;4917395;29;19921;-79
2021/03/26 09:55:06;;;;;;;;;;;13.50;75.40;;;;;;4915675;29;19907;-77
2021/03/26 09:57:41;;;;;;;;;;;13.70;75.30;;;;;;4915785;29;19914;-76
2021/03/26 10:00:21;;;;;;;;;;;13.80;75.20;;;;;;4916155;29;20003;-78
2021/03/26 10:02:59;;;;;;;;;;;13.90;74.80;;;;;;4918640;29;19915;-79
2021/03/26 10:05:33;;;;;;;;;;;14.20;74.50;;;;;;4929030;29;19919;-77
2021/03/26 10:08:08;;;;;;;;;;;14.10;74.10;;;;;;4913924;29;20018;-79
2021/03/26 10:13:24;;;;;;;;;;;14.20;73.70;;;;;;4947333;29;19906;-83
2021/03/26 10:15:59;;;;;;;;;;;14.20;73.70;;;;;;4976131;28;19992;-78
2021/03/26 10:18:28;;;;;;;;;;;14.20;73.60;;;;;;4976895;28;19925;-79
2021/03/26 10:21:13;;;;;;;;;;;14.00;73.70;;;;;;5004466;28;19955;-80
2021/03/26 10:23:57;;;;;;;;;;;14.00;73.80;;;;;;5015995;28;20744;-81
2021/03/26 10:26:29;;;;;;;;;;;14.00;73.80;;;;;;5014357;28;19956;-78
2021/03/26 10:29:12;;;;;;;;;;;14.00;74.00;;;;;;5000384;28;19906;-77
2021/03/26 10:31:39;;;;;;;;;;;14.00;74.10;;;;;;5021448;28;19913;-78
2021/03/26 10:34:06;;;;;;;;;;;13.90;74.00;;;;;;5014522;28;19909;-78
2021/03/26 10:36:41;;;;;;;;;;;13.90;74.00;;;;;;5015846;28;19920;-76
2021/03/26 10:39:11;;;;;;;;;;;13.90;73.50;;;;;;5012982;28;20355;-76
2021/03/26 10:41:52;;;;;;;;;;;14.00;73.40;;;;;;5011686;28;20000;-75
2021/03/26 10:44:31;;;;;;;;;;;14.00;73.20;;;;;;5013113;28;19964;-77
2021/03/26 10:47:05;;;;;;;;;;;14.10;72.90;;;;;;5012570;28;20000;-74
2021/03/26 10:49:37;;;;;;;;;;;14.10;72.70;;;;;;5013328;28;19921;-77
2021/03/26 10:52:10;;;;;;;;;;;14.10;72.40;;;;;;5011396;28;19940;-75
2021/03/26 10:54:56;;;;;;;;;;;14.20;72.00;;;;;;5011957;28;19906;-78
2021/03/26 10:57:28;;;;;;;;;;;14.20;71.40;;;;;;5013916;28;19977;-76
2021/03/26 11:00:14;;;;;;;;;;;14.30;71.00;;;;;;5016115;28;19976;-77
2021/03/26 11:02:52;;;;;;;;;;;14.30;70.80;;;;;;4998888;28;19906;-76
2021/03/26 11:05:24;;;;;;;;;;;14.30;70.50;;;;;;5013928;28;19925;-76
2021/03/26 11:08:09;;;;;;;;;;;14.30;70.40;;;;;;5014484;28;19909;-77
2021/03/26 11:10:37;;;;;;;;;;;14.30;70.30;;;;;;5014876;28;20284;-76
2021/03/26 11:13:09;;;;;;;;;;;14.20;70.00;;;;;;5017016;28;19929;-77
2021/03/26 11:15:36;;;;;;;;;;;14.30;69.90;;;;;;5015629;28;20562;-77
2021/03/26 11:18:05;;;;;;;;;;;14.20;68.90;;;;;;5016433;28;20344;-76
2021/03/26 11:20:34;;;;;;;;;;;14.20;69.20;;;;;;5016272;28;20355;-77
2021/03/26 11:23:07;;;;;;;;;;;14.20;68.70;;;;;;4996955;28;19913;-77
2021/03/26 11:25:34;;;;;;;;;;;14.20;69.20;;;;;;5014102;28;20375;-74
2021/03/26 11:28:01;;;;;;;;;;;14.20;69.10;;;;;;5012382;28;20417;-74
2021/03/26 11:30:47;;;;;;;;;;;14.40;69.10;;;;;;5012372;28;20344;-74
2021/03/26 11:33:17;;;;;;;;;;;14.40;68.40;;;;;;5010711;28;20278;-74
2021/03/26 11:35:44;;;;;;;;;;;14.50;68.30;;;;;;5010341;28;20232;-74
2021/03/26 11:38:14;;;;;;;;;;;14.50;68.00;;;;;;5010769;28;20044;-74
2021/03/26 11:40:44;;;;;;;;;;;14.40;67.90;;;;;;5011135;28;19920;-74
2021/03/26 11:43:12;;;;;;;;;;;14.30;68.20;;;;;;5012798;28;19967;-74
2021/03/26 11:45:43;;;;;;;;;;;14.30;68.40;;;;;;5012599;28;19956;-74
2021/03/26 11:48:12;;;;;;;;;;;14.40;68.30;;;;;;5012791;28;20351;-74
2021/03/26 11:50:42;;;;;;;;;;;14.50;68.40;;;;;;5012662;28;19909;-74
2021/03/26 11:53:27;;;;;;;;;;;14.70;68.10;;;;;;5012530;28;20360;-74
2021/03/26 11:56:04;;;;;;;;;;;14.90;67.50;;;;;;5012421;28;19917;-75
2021/03/26 11:58:34;;;;;;;;;;;15.10;67.00;;;;;;5012069;28;19989;-77
2021/03/26 12:01:04;;;;;;;;;;;15.10;66.90;;;;;;4992110;28;19947;-77
2021/03/26 12:03:50;;;;;;;;;;;14.90;65.80;;;;;;5016935;28;19972;-83
2021/03/26 12:06:47;;;;;;;;;;;14.80;66.40;;;;;;5017852;28;19917;-79
2021/03/26 12:09:20;;;;;;;;;;;14.60;66.40;;;;;;4980136;28;19996;-78
2021/03/26 12:12:05;;;;;;;;;;;14.70;66.80;;;;;;5011025;28;19975;-74
2021/03/26 12:14:39;;;;;;;;;;;14.90;66.60;;;;;;4995182;28;19936;-76
2021/03/26 12:17:25;;;;;;;;;;;15.10;65.90;;;;;;5015559;28;19905;-77
2021/03/26 12:19:57;;;;;;;;;;;15.10;65.30;;;;;;4994638;28;20330;-75
2021/03/26 12:22:30;;;;;;;;;;;15.30;65.00;;;;;;5014602;28;19947;-76
2021/03/26 12:25:09;;;;;;;;;;;15.40;64.80;;;;;;5011883;28;19932;-80
2021/03/26 12:27:45;;;;;;;;;;;15.60;65.10;;;;;;5011480;28;19960;-77
2021/03/26 12:30:14;;;;;;;;;;;15.70;63.80;;;;;;4975374;28;20028;-75
2021/03/26 12:32:59;;;;;;;;;;;15.80;63.50;;;;;;5010036;28;19910;-78
2021/03/26 12:35:29;;;;;;;;;;;15.80;63.30;;;;;;5009828;28;19928;-76
2021/03/26 12:38:00;;;;;;;;;;;15.80;63.50;;;;;;4992236;28;19913;-81
2021/03/26 12:40:32;;;;;;;;;;;15.80;62.90;;;;;;4995623;28;20360;-77
2021/03/26 12:43:01;;;;;;;;;;;15.80;62.70;;;;;;5011821;28;19906;-76
2021/03/26 12:45:34;;;;;;;;;;;16.00;63.20;;;;;;5015965;28;19926;-80
2021/03/26 12:48:09;;;;;;;;;;;16.00;62.60;;;;;;5009983;28;20004;-75
2021/03/26 12:50:48;;;;;;;;;;;16.10;62.20;;;;;;5013256;28;19906;-80
2021/03/26 12:53:23;;;;;;;;;;;15.90;62.00;;;;;;4936226;29;19911;-81
2021/03/26 12:55:54;;;;;;;;;;;15.70;62.10;;;;;;4955859;29;20423;-79
2021/03/26 12:58:30;;;;;;;;;;;15.70;62.80;;;;;;4957465;29;19907;-76
2021/03/26 13:01:04;;;;;;;;;;;15.70;61.90;;;;;;4955273;29;20293;-75
2021/03/26 13:03:33;;;;;;;;;;;15.70;62.10;;;;;;4955474;29;19906;-77
2021/03/26 13:06:09;;;;;;;;;;;15.90;61.40;;;;;;4951824;29;19981;-76
2021/03/26 13:08:36;;;;;;;;;;;15.80;61.30;;;;;;4954973;29;19914;-76
2021/03/26 13:11:20;;;;;;;;;;;15.80;61.40;;;;;;4940505;29;20372;-76
2021/03/26 13:14:05;;;;;;;;;;;15.80;61.30;;;;;;4956275;29;19906;-76
2021/03/26 13:16:40;;;;;;;;;;;15.60;61.20;;;;;;4957016;29;19907;-78
2021/03/26 13:19:13;;;;;;;;;;;15.60;61.50;;;;;;4953292;29;19930;-76
2021/03/26 13:21:44;;;;;;;;;;;15.60;61.30;;;;;;4960474;29;19921;-78
2021/03/26 13:24:20;;;;;;;;;;;15.70;62.40;;;;;;4985061;28;19914;-76
2021/03/26 13:26:46;;;;;;;;;;;15.80;61.40;;;;;;5019972;28;19918;-76
2021/03/26 13:29:25;;;;;;;;;;;15.80;60.70;;;;;;5015097;28;19956;-77
2021/03/26 13:31:53;;;;;;;;;;;15.60;61.40;;;;;;5012852;28;19905;-76
2021/03/26 13:34:23;;;;;;;;;;;15.60;61.30;;;;;;5015260;28;19941;-76
2021/03/26 13:37:01;;;;;;;;;;;15.60;61.30;;;;;;5015084;28;19913;-76
2021/03/26 13:39:36;;;;;;;;;;;15.60;61.60;;;;;;5013334;28;19944;-75
2021/03/26 13:42:11;;;;;;;;;;;15.40;61.70;;;;;;5014291;28;19905;-75
2021/03/26 13:44:51;;;;;;;;;;;15.30;62.00;;;;;;5012311;28;19917;-75
2021/03/26 13:47:20;;;;;;;;;;;15.40;62.40;;;;;;5014815;28;19944;-76
2021/03/26 13:49:51;;;;;;;;;;;15.30;62.30;;;;;;5016474;28;19936;-78
2021/03/26 13:52:20;;;;;;;;;;;15.30;62.30;;;;;;4996594;28;19917;-75
2021/03/26 13:54:48;;;;;;;;;;;15.30;61.90;;;;;;5014080;28;19917;-75
2021/03/26 13:57:22;;;;;;;;;;;15.20;61.90;;;;;;5014311;28;20344;-76
2021/03/26 13:59:54;;;;;;;;;;;15.10;62.10;;;;;;4980169;28;19993;-76
2021/03/26 14:02:25;;;;;;;;;;;15.10;62.20;;;;;;5002189;28;19921;-79
2021/03/26 14:05:05;;;;;;;;;;;15.20;62.20;;;;;;5013669;28;20005;-77
2021/03/26 14:07:34;;;;;;;;;;;15.30;62.00;;;;;;5012633;28;19925;-77
2021/03/26 14:10:04;;;;;;;;;;;15.20;61.40;;;;;;4995036;28;19914;-75
2021/03/26 14:12:35;;;;;;;;;;;15.10;61.50;;;;;;5013742;28;19913;-77
2021/03/26 14:15:02;;;;;;;;;;;15.00;61.60;;;;;;4995491;28;19917;-79
2021/03/26 14:17:33;;;;;;;;;;;15.00;61.70;;;;;;5013969;28;19921;-77
2021/03/26 14:20:06;;;;;;;;;;;14.80;61.70;;;;;;5011633;28;19909;-77
2021/03/26 14:22:36;;;;;;;;;;;14.90;61.50;;;;;;4996515;28;19914;-79
2021/03/26 14:25:20;;;;;;;;;;;15.10;61.10;;;;;;5003016;28;19923;-83
2021/03/26 14:27:54;;;;;;;;;;;15.10;60.50;;;;;;4996852;28;20396;-82
2021/03/26 14:30:49;;;;;;;;;;;15.10;60.30;;;;;;4970508;28;19906;-80
2021/03/26 14:33:19;;;;;;;;;;;15.10;60.10;;;;;;4957056;28;19929;-76
2021/03/26 14:35:48;;;;;;;;;;;15.10;60.20;;;;;;4972610;28;19945;-75
2021/03/26 14:38:25;;;;;;;;;;;15.10;60.20;;;;;;4942661;28;20373;-80
2021/03/26 14:41:05;;;;;;;;;;;15.00;60.10;;;;;;4971725;28;19913;-77
2021/03/26 14:43:32;;;;;;;;;;;15.00;60.50;;;;;;4971484;28;19913;-79
2021/03/26 14:45:59;;;;;;;;;;;15.00;60.70;;;;;;4918494;29;19925;-75
2021/03/26 14:48:29;;;;;;;;;;;15.10;60.60;;;;;;4934234;29;19913;-74
2021/03/26 14:51:09;;;;;;;;;;;15.20;60.30;;;;;;4917777;29;19911;-76
2021/03/26 14:53:38;;;;;;;;;;;15.40;59.90;;;;;;4917811;29;19931;-75
2021/03/26 14:56:06;;;;;;;;;;;15.30;59.80;;;;;;4933854;29;19907;-76
2021/03/26 14:58:36;;;;;;;;;;;15.20;59.70;;;;;;4933703;29;20317;-77
2021/03/26 15:01:07;;;;;;;;;;;15.20;59.80;;;;;;4949892;28;19956;-77
2021/03/26 15:03:42;;;;;;;;;;;15.20;59.80;;;;;;4974200;28;19906;-75
2021/03/26 15:06:13;;;;;;;;;;;15.20;59.90;;;;;;4955779;28;19917;-74
2021/03/26 15:08:56;;;;;;;;;;;15.20;60.00;;;;;;4971803;28;20052;-76